AirNav   Pilot Hours Calculator
 
 765 users online  

9NE8 Brosius Field Airport
Stapleton, Nebraska, USA

GOING TO STAPLETON?


FAA INFORMATION EFFECTIVE 03 NOVEMBER 2022

Location

FAA Identifier: 9NE8
Lat/Long: 41-24-05.9950N 100-28-43.5010W
41-24.099917N 100-28.725017W
41.4016653,-100.4787503
(estimated)
Elevation: 3010 ft. / 917.4 m (surveyed)
Variation: 09E (1985)
From city: 5 miles SE of STAPLETON, NE
Time zone: UTC -6 (UTC -5 during Daylight Saving Time)
Zip code: 69163

Airport Operations

Airport use: Private use. Permission required prior to landing
Control tower: no
ARTCC: DENVER CENTER
FSS: COLUMBUS FLIGHT SERVICE STATION
Attendance: DAYLIGHT HOURS
Wind indicator: no
Segmented circle: no

Airport Communications

WX ASOS at LBF (19 nm SW): 118.425 (308-534-1617)

Nearby radio navigation aids

VOR radial/distance  VOR name  Freq  Var
LBFr019/24.4NORTH PLATTE VOR/DME117.4011E
CUZr254/35.9CUSTER COUNTY VOR/DME108.2008E
TDDr154/36.4THEDFORD VOR/DME108.6009E
OZBr317/(38.4)COZAD VOR109.0009E

Airport Services

Runway Information

Runway 12/30

Dimensions: 2000 x 100 ft. / 610 x 30 m
Surface: turf
RUNWAY 12  RUNWAY 30
Traffic pattern: leftleft
Obstructions: road, 300 ft. from runwaynone

Airport Ownership and Management from official FAA records

Ownership: Privately-owned
Owner: DENNIS J BROSIUS
P.O. BOX 968
NORTHPLATTE, NE 69103
Phone 308-636-2237
Manager: DENNIS J BROSIUS
STAPLETON, NE 69163
Phone 308-636-2237

Airport Operational Statistics

Aircraft based on the field: 3
Single engine airplanes: 3
    

Additional Remarks

FOR CD CTC DENVER ARTCC AT 303-651-4257.

Instrument Procedures

There are no published instrument procedures at 9NE8.

Some nearby airports with instrument procedures:

KLBF - North Platte Regional Airport/Lee Bird Field (19 nm SW)
KGTE - Gothenburg Municipal Airport (32 nm SE)
KTIF - Thomas County Airport (34 nm N)
KBBW - Broken Bow Municipal Airport/Keith Glaze Field (38 nm E)
KCZD - Cozad Municipal Airport (38 nm SE)
 
Loc | Ops | Rwys | IFR | FBO | Links
Com | Nav | Svcs | Stats | Notes
Area around 9NE8 (Brosius Field Airport)
 
Road maps at: MapQuest Bing Google
 
Aerial photo
No photo
 
Sectional chart

 
Airport distance calculator
Flying to Brosius Field Airport? Find the distance to fly.

From to 9NE8

Sunrise and sunset
Times for 30-Nov-2022
 Local
(UTC-6)
 Zulu
(UTC)
Morning civil twilight07:1813:18
Sunrise07:4913:49
Sunset17:1323:13
Evening civil twilight17:4323:43

Current date and time
Zulu (UTC)  01-Dec-2022 04:47:41
Local (UTC-6)  30-Nov-2022 22:47:41
 
METAR
KLBF 
19nm SW 
010353Z AUTO 16011KT 10SM CLR M02/M10 A3010 RMK AO2 SLP229 T10171100
KTIF 
34nm N 
010435Z AUTO 17016G22KT 10SM CLR M04/M10 A3003 RMK AO2 T10451100
KBBW 
37nm E 
010353Z AUTO 16014KT 10SM CLR M04/M12 A3013 RMK AO2 SLP242 T10391117
TAF
KLBF 
19nm SW 
301735Z 3018/0118 21007KT P6SM SKC FM302200 15008KT P6SM FEW250 FM010200 14010KT P6SM SCT250 WS020/19040KT FM010900 17007KT P6SM SCT250
NOTAMs
Click for the latest NOTAMs
NOTAMs are issued by the DoD/FAA and will open in a separate window not controlled by AirNav.

 

 
 

Would you like to see your business listed on this page?

 If your business provides an interesting product or service to pilots, flight crews, aircraft, or users of the Brosius Field Airport, you should consider listing it here.  To start the listing process, click on the button below
 
Add a business
 

Other Pages about Brosius Field Airport

Update a link
 
Copyright © AirNav, LLC. All rights reserved. Privacy Policy  Contact